Aérodrome :
LOGIN :

S'inscrire | Disclaimer

   EN    FR    IT 

 










Légende :    VFR   VFR Marginal   IFR   IFR Intensif   IFR Très Intensif
Visi : 
Plafond : 
>= 8 km
>= 3000ft
5 à 8 km
1000 à 3000 ft
1500m à 5 km
500 à 1000 ft
800 à 1500m
200 à 500 ft
< 800m
< 200 ft
Symboles :   Orages  Brouillard  Fortes neiges  Fortes précipitations  Vent > 20 kt
SIGMETs :   Divers  Orages  Givrage  Turbulence  Onde Orograph.  Cendres Volcan.






- Altitude de l'aérodrome : 1090 ft
- Code IATA : CFE


LFLC - Clermont-Ferrand Auvergne

DERNIER METAR :
  • 261130Z AUTO 28009KT 250V320 9999 SCT048 22/11 Q1019 TEMPO 4000 SHRA SCT045TCU

METARs EXPIRÉS :
  • 261100Z AUTO 24012KT 9999 BKN049 BKN056 22/12 Q1019 TEMPO SHRA BKN045TCU
  • 261030Z AUTO 21010KT 180V260 9999 SCT049 21/11 Q1019 TEMPO SHRA BKN045TCU
  • 261000Z AUTO 18007KT 150V210 9999 FEW052 SCT110 21/15 Q1019 TEMPO SHRA BKN045TCU
  • 260930Z AUTO 17010KT 9999 FEW009 SCT110 20/14 Q1019 TEMPO 27006KT SHRA BKN045TCU
  • 260900Z AUTO 18012KT CAVOK 19/14 Q1019 TEMPO 27006KT SHRA BKN045TCU

TAF TAF LFLC
Valide du 26 à 12h jusqu'au 27 à 12h UTC


261100Z 2612/2712 24012KT 9999 BKN050
TEMPO 2612/2614 4000 SHRA SCT045TCU
BECMG 2619/2621 18010KT
ATIS : +33 4 73 62 74 38



MET'MAP, la Météo Aéronautique d'un coup d'oeil ! - Copyright ORBIFLY Décembre 2007 - Disclaimer

ORBIFLY MET'MAP TEAM :

Programmation & Développement : Alexandra Zaïnal
Sur une idée originale de : Baudouin d'Aumeries
Assistance à la programmation : Marc-Olivier Méhu
Soutien technique & logistique : Manuel Goepfert

Contact : metmap@orbifly.com




SOURCES & CREDITS :

   NOAA